sensor_id;sensor_type;location;lat;lon;timestamp;P1;durP1;ratioP1;P2;durP2;ratioP2
48317;SDS011;34127;47.412;9.730;2023-08-24T00:00:12;11.57;;;6.80;;
48317;SDS011;34127;47.412;9.730;2023-08-24T00:02:39;12.68;;;6.35;;
48317;SDS011;34127;47.412;9.730;2023-08-24T00:05:05;9.68;;;6.30;;
48317;SDS011;34127;47.412;9.730;2023-08-24T00:07:32;11.95;;;6.25;;
48317;SDS011;34127;47.412;9.730;2023-08-24T00:09:58;12.38;;;5.80;;
48317;SDS011;34127;47.412;9.730;2023-08-24T00:12:25;12.02;;;5.95;;
48317;SDS011;34127;47.412;9.730;2023-08-24T00:14:51;9.82;;;5.50;;
48317;SDS011;34127;47.412;9.730;2023-08-24T00:17:17;13.65;;;5.90;;
48317;SDS011;34127;47.412;9.730;2023-08-24T00:19:44;12.20;;;5.50;;
48317;SDS011;34127;47.412;9.730;2023-08-24T00:22:11;13.63;;;6.18;;
48317;SDS011;34127;47.412;9.730;2023-08-24T00:24:38;10.25;;;5.50;;
48317;SDS011;34127;47.412;9.730;2023-08-24T00:27:04;13.98;;;5.38;;
48317;SDS011;34127;47.412;9.730;2023-08-24T00:29:30;14.90;;;5.90;;
48317;SDS011;34127;47.412;9.730;2023-08-24T00:31:56;13.27;;;5.55;;
48317;SDS011;34127;47.412;9.730;2023-08-24T00:34:23;16.15;;;6.38;;
48317;SDS011;34127;47.412;9.730;2023-08-24T00:36:49;10.50;;;5.82;;
48317;SDS011;34127;47.412;9.730;2023-08-24T00:39:16;10.98;;;5.65;;
48317;SDS011;34127;47.412;9.730;2023-08-24T00:41:42;11.40;;;5.63;;
48317;SDS011;34127;47.412;9.730;2023-08-24T00:44:08;13.05;;;7.15;;
48317;SDS011;34127;47.412;9.730;2023-08-24T00:46:34;10.38;;;6.32;;
48317;SDS011;34127;47.412;9.730;2023-08-24T00:49:01;13.65;;;6.53;;
48317;SDS011;34127;47.412;9.730;2023-08-24T00:51:28;12.15;;;5.30;;
48317;SDS011;34127;47.412;9.730;2023-08-24T00:53:54;11.80;;;5.55;;
48317;SDS011;34127;47.412;9.730;2023-08-24T00:56:22;10.73;;;5.85;;
48317;SDS011;34127;47.412;9.730;2023-08-24T00:58:49;9.45;;;5.22;;
48317;SDS011;34127;47.412;9.730;2023-08-24T01:01:17;8.77;;;5.60;;
48317;SDS011;34127;47.412;9.730;2023-08-24T01:03:44;12.40;;;5.55;;
48317;SDS011;34127;47.412;9.730;2023-08-24T01:06:10;8.20;;;4.90;;
48317;SDS011;34127;47.412;9.730;2023-08-24T01:08:36;11.73;;;5.28;;
48317;SDS011;34127;47.412;9.730;2023-08-24T01:13:36;8.63;;;5.10;;
48317;SDS011;34127;47.412;9.730;2023-08-24T01:16:28;11.15;;;5.13;;
48317;SDS011;34127;47.412;9.730;2023-08-24T01:18:59;8.80;;;5.13;;
48317;SDS011;34127;47.412;9.730;2023-08-24T01:21:26;7.88;;;4.80;;
48317;SDS011;34127;47.412;9.730;2023-08-24T01:25:00;7.07;;;4.75;;
48317;SDS011;34127;47.412;9.730;2023-08-24T01:26:49;11.07;;;5.63;;
48317;SDS011;34127;47.412;9.730;2023-08-24T01:29:16;11.20;;;5.68;;
48317;SDS011;34127;47.412;9.730;2023-08-24T01:31:43;11.98;;;5.13;;
48317;SDS011;34127;47.412;9.730;2023-08-24T01:34:09;9.20;;;4.93;;
48317;SDS011;34127;47.412;9.730;2023-08-24T01:36:36;9.10;;;4.47;;
48317;SDS011;34127;47.412;9.730;2023-08-24T01:41:52;13.00;;;5.30;;
48317;SDS011;34127;47.412;9.730;2023-08-24T01:44:20;10.35;;;5.20;;
48317;SDS011;34127;47.412;9.730;2023-08-24T01:46:48;7.30;;;4.70;;
48317;SDS011;34127;47.412;9.730;2023-08-24T01:49:17;9.35;;;4.80;;
48317;SDS011;34127;47.412;9.730;2023-08-24T01:51:43;14.35;;;6.05;;
48317;SDS011;34127;47.412;9.730;2023-08-24T01:54:10;9.93;;;4.90;;
48317;SDS011;34127;47.412;9.730;2023-08-24T01:56:37;10.80;;;5.15;;
48317;SDS011;34127;47.412;9.730;2023-08-24T01:59:04;8.85;;;6.15;;
48317;SDS011;34127;47.412;9.730;2023-08-24T02:01:30;9.15;;;4.57;;
48317;SDS011;34127;47.412;9.730;2023-08-24T02:03:57;12.10;;;5.65;;
48317;SDS011;34127;47.412;9.730;2023-08-24T02:06:24;10.15;;;4.90;;
48317;SDS011;34127;47.412;9.730;2023-08-24T02:08:51;9.30;;;4.80;;
48317;SDS011;34127;47.412;9.730;2023-08-24T02:11:20;10.05;;;5.72;;
48317;SDS011;34127;47.412;9.730;2023-08-24T02:13:47;9.13;;;5.32;;
48317;SDS011;34127;47.412;9.730;2023-08-24T02:16:14;7.72;;;4.78;;
48317;SDS011;34127;47.412;9.730;2023-08-24T02:18:40;7.47;;;5.20;;
48317;SDS011;34127;47.412;9.730;2023-08-24T02:21:10;12.25;;;5.10;;
48317;SDS011;34127;47.412;9.730;2023-08-24T02:23:37;16.38;;;5.25;;
48317;SDS011;34127;47.412;9.730;2023-08-24T02:26:03;8.80;;;4.88;;
48317;SDS011;34127;47.412;9.730;2023-08-24T02:28:30;10.60;;;4.90;;
48317;SDS011;34127;47.412;9.730;2023-08-24T02:31:02;10.07;;;4.68;;
48317;SDS011;34127;47.412;9.730;2023-08-24T02:33:29;9.98;;;5.35;;
48317;SDS011;34127;47.412;9.730;2023-08-24T02:35:56;11.27;;;5.15;;
48317;SDS011;34127;47.412;9.730;2023-08-24T02:38:23;6.57;;;4.80;;
48317;SDS011;34127;47.412;9.730;2023-08-24T02:40:49;14.68;;;5.85;;
48317;SDS011;34127;47.412;9.730;2023-08-24T02:43:16;13.68;;;4.65;;
48317;SDS011;34127;47.412;9.730;2023-08-24T02:45:42;9.57;;;4.80;;
48317;SDS011;34127;47.412;9.730;2023-08-24T02:48:09;10.13;;;4.70;;
48317;SDS011;34127;47.412;9.730;2023-08-24T02:50:35;16.20;;;5.60;;
48317;SDS011;34127;47.412;9.730;2023-08-24T02:53:01;10.05;;;4.55;;
48317;SDS011;34127;47.412;9.730;2023-08-24T02:55:27;12.18;;;5.20;;
48317;SDS011;34127;47.412;9.730;2023-08-24T02:57:53;8.68;;;4.68;;
48317;SDS011;34127;47.412;9.730;2023-08-24T03:00:20;11.20;;;4.97;;
48317;SDS011;34127;47.412;9.730;2023-08-24T03:02:46;9.07;;;4.63;;
48317;SDS011;34127;47.412;9.730;2023-08-24T03:05:13;9.00;;;5.18;;
48317;SDS011;34127;47.412;9.730;2023-08-24T03:07:39;18.23;;;5.90;;
48317;SDS011;34127;47.412;9.730;2023-08-24T03:10:05;7.63;;;4.30;;
48317;SDS011;34127;47.412;9.730;2023-08-24T03:12:32;10.63;;;4.70;;
48317;SDS011;34127;47.412;9.730;2023-08-24T03:14:58;11.75;;;4.45;;
48317;SDS011;34127;47.412;9.730;2023-08-24T03:17:25;14.07;;;4.63;;
48317;SDS011;34127;47.412;9.730;2023-08-24T03:19:51;11.52;;;4.22;;
48317;SDS011;34127;47.412;9.730;2023-08-24T03:22:17;8.98;;;4.20;;
48317;SDS011;34127;47.412;9.730;2023-08-24T03:24:43;10.48;;;4.45;;
48317;SDS011;34127;47.412;9.730;2023-08-24T03:27:10;10.10;;;3.97;;
48317;SDS011;34127;47.412;9.730;2023-08-24T03:29:36;9.68;;;4.30;;
48317;SDS011;34127;47.412;9.730;2023-08-24T03:32:02;9.40;;;4.32;;
48317;SDS011;34127;47.412;9.730;2023-08-24T03:34:29;10.25;;;5.32;;
48317;SDS011;34127;47.412;9.730;2023-08-24T03:36:56;8.40;;;4.78;;
48317;SDS011;34127;47.412;9.730;2023-08-24T03:39:22;11.55;;;5.40;;
48317;SDS011;34127;47.412;9.730;2023-08-24T03:41:48;13.60;;;5.53;;
48317;SDS011;34127;47.412;9.730;2023-08-24T03:44:14;10.23;;;5.70;;
48317;SDS011;34127;47.412;9.730;2023-08-24T03:46:40;13.75;;;6.18;;
48317;SDS011;34127;47.412;9.730;2023-08-24T03:49:06;16.60;;;6.97;;
48317;SDS011;34127;47.412;9.730;2023-08-24T03:51:33;15.02;;;6.10;;
48317;SDS011;34127;47.412;9.730;2023-08-24T03:53:59;12.88;;;6.00;;
48317;SDS011;34127;47.412;9.730;2023-08-24T03:56:25;12.68;;;5.07;;
48317;SDS011;34127;47.412;9.730;2023-08-24T03:58:51;20.77;;;5.10;;
48317;SDS011;34127;47.412;9.730;2023-08-24T04:01:18;12.63;;;4.50;;
48317;SDS011;34127;47.412;9.730;2023-08-24T04:03:44;10.57;;;5.10;;
48317;SDS011;34127;47.412;9.730;2023-08-24T04:06:11;13.52;;;5.05;;
48317;SDS011;34127;47.412;9.730;2023-08-24T04:08:37;11.90;;;4.40;;
48317;SDS011;34127;47.412;9.730;2023-08-24T04:11:03;12.20;;;4.43;;
48317;SDS011;34127;47.412;9.730;2023-08-24T04:13:29;12.70;;;4.13;;
48317;SDS011;34127;47.412;9.730;2023-08-24T04:15:56;12.48;;;4.65;;
48317;SDS011;34127;47.412;9.730;2023-08-24T04:18:23;13.27;;;4.38;;
48317;SDS011;34127;47.412;9.730;2023-08-24T04:20:51;11.32;;;4.00;;
48317;SDS011;34127;47.412;9.730;2023-08-24T04:23:23;9.60;;;4.32;;
48317;SDS011;34127;47.412;9.730;2023-08-24T04:25:50;13.18;;;4.28;;
48317;SDS011;34127;47.412;9.730;2023-08-24T04:28:16;9.63;;;4.22;;
48317;SDS011;34127;47.412;9.730;2023-08-24T04:30:49;14.20;;;4.40;;
48317;SDS011;34127;47.412;9.730;2023-08-24T04:33:16;12.70;;;4.22;;
48317;SDS011;34127;47.412;9.730;2023-08-24T04:35:42;13.88;;;4.28;;
48317;SDS011;34127;47.412;9.730;2023-08-24T04:38:09;11.98;;;4.38;;
48317;SDS011;34127;47.412;9.730;2023-08-24T04:40:46;14.15;;;5.57;;
48317;SDS011;34127;47.412;9.730;2023-08-24T04:43:12;12.18;;;4.65;;
48317;SDS011;34127;47.412;9.730;2023-08-24T04:45:38;12.90;;;4.43;;
48317;SDS011;34127;47.412;9.730;2023-08-24T04:48:04;13.15;;;4.43;;
48317;SDS011;34127;47.412;9.730;2023-08-24T04:50:30;12.20;;;4.18;;
48317;SDS011;34127;47.412;9.730;2023-08-24T04:52:57;16.27;;;4.35;;
48317;SDS011;34127;47.412;9.730;2023-08-24T04:55:23;15.50;;;4.20;;
48317;SDS011;34127;47.412;9.730;2023-08-24T04:57:49;11.80;;;4.13;;
48317;SDS011;34127;47.412;9.730;2023-08-24T05:00:15;17.52;;;4.90;;
48317;SDS011;34127;47.412;9.730;2023-08-24T05:02:43;13.70;;;3.88;;
48317;SDS011;34127;47.412;9.730;2023-08-24T05:05:09;11.00;;;3.85;;
48317;SDS011;34127;47.412;9.730;2023-08-24T05:07:37;17.10;;;4.20;;
48317;SDS011;34127;47.412;9.730;2023-08-24T05:10:04;12.65;;;4.75;;
48317;SDS011;34127;47.412;9.730;2023-08-24T05:12:30;12.90;;;4.30;;
48317;SDS011;34127;47.412;9.730;2023-08-24T05:14:58;22.45;;;3.90;;
48317;SDS011;34127;47.412;9.730;2023-08-24T05:17:24;17.00;;;4.03;;
48317;SDS011;34127;47.412;9.730;2023-08-24T05:19:56;17.23;;;3.92;;
48317;SDS011;34127;47.412;9.730;2023-08-24T05:22:22;9.98;;;3.53;;
48317;SDS011;34127;47.412;9.730;2023-08-24T05:24:48;16.27;;;4.28;;
48317;SDS011;34127;47.412;9.730;2023-08-24T05:27:14;20.48;;;3.90;;
48317;SDS011;34127;47.412;9.730;2023-08-24T05:29:41;17.60;;;4.97;;
48317;SDS011;34127;47.412;9.730;2023-08-24T05:32:08;16.38;;;3.78;;
48317;SDS011;34127;47.412;9.730;2023-08-24T05:34:34;17.55;;;4.25;;
48317;SDS011;34127;47.412;9.730;2023-08-24T05:37:00;22.85;;;4.38;;
48317;SDS011;34127;47.412;9.730;2023-08-24T05:39:26;15.48;;;4.32;;
48317;SDS011;34127;47.412;9.730;2023-08-24T05:41:52;15.65;;;3.83;;
48317;SDS011;34127;47.412;9.730;2023-08-24T05:44:19;14.10;;;4.57;;
48317;SDS011;34127;47.412;9.730;2023-08-24T05:46:46;13.90;;;3.92;;
48317;SDS011;34127;47.412;9.730;2023-08-24T05:49:12;13.13;;;4.20;;
48317;SDS011;34127;47.412;9.730;2023-08-24T05:51:39;16.58;;;3.92;;
48317;SDS011;34127;47.412;9.730;2023-08-24T05:54:05;18.23;;;5.00;;
48317;SDS011;34127;47.412;9.730;2023-08-24T05:56:31;19.58;;;4.28;;
48317;SDS011;34127;47.412;9.730;2023-08-24T05:58:57;17.35;;;5.30;;
48317;SDS011;34127;47.412;9.730;2023-08-24T06:01:24;15.55;;;4.40;;
48317;SDS011;34127;47.412;9.730;2023-08-24T06:03:51;14.40;;;4.03;;
48317;SDS011;34127;47.412;9.730;2023-08-24T06:06:18;17.20;;;5.43;;
48317;SDS011;34127;47.412;9.730;2023-08-24T06:08:44;18.27;;;5.05;;
48317;SDS011;34127;47.412;9.730;2023-08-24T06:11:10;16.02;;;4.07;;
48317;SDS011;34127;47.412;9.730;2023-08-24T06:13:37;12.75;;;3.90;;
48317;SDS011;34127;47.412;9.730;2023-08-24T06:16:03;16.08;;;5.13;;
48317;SDS011;34127;47.412;9.730;2023-08-24T06:18:29;16.50;;;4.28;;
48317;SDS011;34127;47.412;9.730;2023-08-24T06:20:56;20.23;;;4.22;;
48317;SDS011;34127;47.412;9.730;2023-08-24T06:23:22;27.52;;;5.07;;
48317;SDS011;34127;47.412;9.730;2023-08-24T06:25:48;17.33;;;4.07;;
48317;SDS011;34127;47.412;9.730;2023-08-24T06:28:15;21.45;;;5.35;;
48317;SDS011;34127;47.412;9.730;2023-08-24T06:30:44;20.17;;;4.38;;
48317;SDS011;34127;47.412;9.730;2023-08-24T06:33:12;26.15;;;4.47;;
48317;SDS011;34127;47.412;9.730;2023-08-24T06:35:38;17.25;;;4.90;;
48317;SDS011;34127;47.412;9.730;2023-08-24T06:38:04;18.55;;;4.90;;
48317;SDS011;34127;47.412;9.730;2023-08-24T06:40:30;18.52;;;4.45;;
48317;SDS011;34127;47.412;9.730;2023-08-24T06:42:57;14.55;;;4.13;;
48317;SDS011;34127;47.412;9.730;2023-08-24T06:45:23;17.13;;;4.80;;
48317;SDS011;34127;47.412;9.730;2023-08-24T06:47:49;19.65;;;4.43;;
48317;SDS011;34127;47.412;9.730;2023-08-24T06:50:16;17.05;;;5.55;;
48317;SDS011;34127;47.412;9.730;2023-08-24T06:52:44;16.55;;;4.53;;
48317;SDS011;34127;47.412;9.730;2023-08-24T06:55:10;14.52;;;4.28;;
48317;SDS011;34127;47.412;9.730;2023-08-24T06:57:37;13.95;;;4.78;;
48317;SDS011;34127;47.412;9.730;2023-08-24T07:00:03;18.50;;;4.90;;
48317;SDS011;34127;47.412;9.730;2023-08-24T07:02:34;11.77;;;4.88;;
48317;SDS011;34127;47.412;9.730;2023-08-24T07:05:02;16.00;;;5.32;;
48317;SDS011;34127;47.412;9.730;2023-08-24T07:07:33;15.25;;;5.90;;
48317;SDS011;34127;47.412;9.730;2023-08-24T07:10:01;20.95;;;6.75;;
48317;SDS011;34127;47.412;9.730;2023-08-24T07:12:28;16.92;;;5.47;;
48317;SDS011;34127;47.412;9.730;2023-08-24T07:14:54;11.32;;;4.57;;
48317;SDS011;34127;47.412;9.730;2023-08-24T07:17:20;17.38;;;5.20;;
48317;SDS011;34127;47.412;9.730;2023-08-24T07:19:46;14.40;;;5.13;;
48317;SDS011;34127;47.412;9.730;2023-08-24T07:22:13;14.75;;;4.97;;
48317;SDS011;34127;47.412;9.730;2023-08-24T07:24:39;11.90;;;4.93;;
48317;SDS011;34127;47.412;9.730;2023-08-24T07:27:06;16.13;;;5.38;;
48317;SDS011;34127;47.412;9.730;2023-08-24T07:29:34;12.77;;;5.30;;
48317;SDS011;34127;47.412;9.730;2023-08-24T07:32:00;17.48;;;5.47;;
48317;SDS011;34127;47.412;9.730;2023-08-24T07:34:28;14.65;;;4.90;;
48317;SDS011;34127;47.412;9.730;2023-08-24T07:36:54;20.00;;;4.97;;
48317;SDS011;34127;47.412;9.730;2023-08-24T07:39:20;12.90;;;4.78;;
48317;SDS011;34127;47.412;9.730;2023-08-24T07:41:47;17.73;;;5.25;;
48317;SDS011;34127;47.412;9.730;2023-08-24T07:44:16;11.25;;;5.05;;
48317;SDS011;34127;47.412;9.730;2023-08-24T07:46:43;13.43;;;4.60;;
48317;SDS011;34127;47.412;9.730;2023-08-24T07:49:09;15.13;;;4.70;;
48317;SDS011;34127;47.412;9.730;2023-08-24T07:51:35;12.30;;;5.38;;
48317;SDS011;34127;47.412;9.730;2023-08-24T07:54:02;14.25;;;5.22;;
48317;SDS011;34127;47.412;9.730;2023-08-24T07:56:29;13.15;;;5.50;;
48317;SDS011;34127;47.412;9.730;2023-08-24T07:58:56;12.68;;;4.88;;
48317;SDS011;34127;47.412;9.730;2023-08-24T08:01:22;15.35;;;4.57;;
48317;SDS011;34127;47.412;9.730;2023-08-24T08:03:49;13.50;;;4.60;;
48317;SDS011;34127;47.412;9.730;2023-08-24T08:06:15;15.95;;;4.43;;
48317;SDS011;34127;47.412;9.730;2023-08-24T08:08:41;10.90;;;4.60;;
48317;SDS011;34127;47.412;9.730;2023-08-24T08:11:09;14.10;;;4.90;;
48317;SDS011;34127;47.412;9.730;2023-08-24T08:13:35;12.55;;;5.00;;
48317;SDS011;34127;47.412;9.730;2023-08-24T08:16:05;15.15;;;5.15;;
48317;SDS011;34127;47.412;9.730;2023-08-24T08:18:32;13.27;;;4.90;;
48317;SDS011;34127;47.412;9.730;2023-08-24T08:20:59;12.80;;;5.80;;
48317;SDS011;34127;47.412;9.730;2023-08-24T08:23:25;14.70;;;4.95;;
48317;SDS011;34127;47.412;9.730;2023-08-24T08:25:51;13.10;;;4.47;;
48317;SDS011;34127;47.412;9.730;2023-08-24T08:28:18;15.25;;;5.03;;
48317;SDS011;34127;47.412;9.730;2023-08-24T08:30:44;15.50;;;5.50;;
48317;SDS011;34127;47.412;9.730;2023-08-24T08:33:10;17.92;;;5.13;;
48317;SDS011;34127;47.412;9.730;2023-08-24T08:35:37;13.25;;;5.25;;
48317;SDS011;34127;47.412;9.730;2023-08-24T08:38:08;13.43;;;4.90;;
48317;SDS011;34127;47.412;9.730;2023-08-24T08:40:36;15.15;;;5.60;;
48317;SDS011;34127;47.412;9.730;2023-08-24T08:43:02;17.48;;;5.55;;
48317;SDS011;34127;47.412;9.730;2023-08-24T08:45:28;12.48;;;5.40;;
48317;SDS011;34127;47.412;9.730;2023-08-24T08:47:59;13.38;;;5.50;;
48317;SDS011;34127;47.412;9.730;2023-08-24T08:50:26;12.20;;;6.63;;
48317;SDS011;34127;47.412;9.730;2023-08-24T08:52:52;12.10;;;6.57;;
48317;SDS011;34127;47.412;9.730;2023-08-24T08:55:19;18.33;;;6.50;;
48317;SDS011;34127;47.412;9.730;2023-08-24T08:57:47;16.60;;;6.97;;
48317;SDS011;34127;47.412;9.730;2023-08-24T09:00:14;10.60;;;6.63;;
48317;SDS011;34127;47.412;9.730;2023-08-24T09:02:45;18.20;;;7.50;;
48317;SDS011;34127;47.412;9.730;2023-08-24T09:05:12;10.48;;;7.03;;
48317;SDS011;34127;47.412;9.730;2023-08-24T09:07:39;17.48;;;8.15;;
48317;SDS011;34127;47.412;9.730;2023-08-24T09:10:06;13.45;;;7.18;;
48317;SDS011;34127;47.412;9.730;2023-08-24T09:12:33;10.48;;;7.00;;
48317;SDS011;34127;47.412;9.730;2023-08-24T09:15:03;13.77;;;8.30;;
48317;SDS011;34127;47.412;9.730;2023-08-24T09:17:31;11.88;;;6.75;;
48317;SDS011;34127;47.412;9.730;2023-08-24T09:19:58;13.35;;;7.13;;
48317;SDS011;34127;47.412;9.730;2023-08-24T09:22:25;16.27;;;7.90;;
48317;SDS011;34127;47.412;9.730;2023-08-24T09:24:51;10.52;;;7.78;;
48317;SDS011;34127;47.412;9.730;2023-08-24T09:27:21;14.80;;;8.23;;
48317;SDS011;34127;47.412;9.730;2023-08-24T09:29:48;11.90;;;7.72;;
48317;SDS011;34127;47.412;9.730;2023-08-24T09:32:15;11.98;;;8.85;;
48317;SDS011;34127;47.412;9.730;2023-08-24T09:34:42;12.57;;;8.00;;
48317;SDS011;34127;47.412;9.730;2023-08-24T09:37:15;14.63;;;8.90;;
48317;SDS011;34127;47.412;9.730;2023-08-24T09:39:41;15.07;;;8.52;;
48317;SDS011;34127;47.412;9.730;2023-08-24T09:42:07;15.70;;;8.65;;
48317;SDS011;34127;47.412;9.730;2023-08-24T09:44:34;12.38;;;8.05;;
48317;SDS011;34127;47.412;9.730;2023-08-24T09:47:00;14.57;;;8.32;;
48317;SDS011;34127;47.412;9.730;2023-08-24T09:49:26;15.52;;;8.52;;
48317;SDS011;34127;47.412;9.730;2023-08-24T09:51:57;12.30;;;8.27;;
48317;SDS011;34127;47.412;9.730;2023-08-24T09:54:27;13.32;;;9.02;;
48317;SDS011;34127;47.412;9.730;2023-08-24T09:56:54;13.38;;;8.27;;
48317;SDS011;34127;47.412;9.730;2023-08-24T09:59:23;16.08;;;8.43;;
48317;SDS011;34127;47.412;9.730;2023-08-24T10:01:53;11.27;;;7.85;;
48317;SDS011;34127;47.412;9.730;2023-08-24T10:04:25;14.10;;;8.50;;
48317;SDS011;34127;47.412;9.730;2023-08-24T10:06:52;16.80;;;9.18;;
48317;SDS011;34127;47.412;9.730;2023-08-24T10:09:22;14.18;;;8.68;;
48317;SDS011;34127;47.412;9.730;2023-08-24T10:11:52;16.33;;;10.45;;
48317;SDS011;34127;47.412;9.730;2023-08-24T10:14:31;15.25;;;8.80;;
48317;SDS011;34127;47.412;9.730;2023-08-24T10:16:58;13.80;;;7.53;;
48317;SDS011;34127;47.412;9.730;2023-08-24T10:19:25;15.32;;;7.28;;
48317;SDS011;34127;47.412;9.730;2023-08-24T10:21:52;18.40;;;7.68;;
48317;SDS011;34127;47.412;9.730;2023-08-24T10:24:22;15.40;;;7.20;;
48317;SDS011;34127;47.412;9.730;2023-08-24T10:26:48;18.52;;;8.20;;
48317;SDS011;34127;47.412;9.730;2023-08-24T10:29:15;15.32;;;7.22;;
48317;SDS011;34127;47.412;9.730;2023-08-24T10:31:42;15.13;;;7.57;;
48317;SDS011;34127;47.412;9.730;2023-08-24T10:34:09;12.70;;;6.70;;
48317;SDS011;34127;47.412;9.730;2023-08-24T10:36:37;13.90;;;6.55;;
48317;SDS011;34127;47.412;9.730;2023-08-24T10:39:04;16.10;;;7.18;;
48317;SDS011;34127;47.412;9.730;2023-08-24T10:41:51;15.48;;;6.80;;
48317;SDS011;34127;47.412;9.730;2023-08-24T10:44:21;12.40;;;6.45;;
48317;SDS011;34127;47.412;9.730;2023-08-24T10:49:33;21.37;;;6.97;;
48317;SDS011;34127;47.412;9.730;2023-08-24T10:52:15;14.75;;;6.63;;
48317;SDS011;34127;47.412;9.730;2023-08-24T10:54:43;21.48;;;7.40;;
48317;SDS011;34127;47.412;9.730;2023-08-24T10:57:17;21.30;;;6.70;;
48317;SDS011;34127;47.412;9.730;2023-08-24T10:59:44;12.68;;;6.72;;
48317;SDS011;34127;47.412;9.730;2023-08-24T11:02:17;16.02;;;6.50;;
48317;SDS011;34127;47.412;9.730;2023-08-24T11:05:31;18.13;;;6.38;;
48317;SDS011;34127;47.412;9.730;2023-08-24T11:07:34;17.80;;;6.55;;
48317;SDS011;34127;47.412;9.730;2023-08-24T11:10:10;17.50;;;6.07;;
48317;SDS011;34127;47.412;9.730;2023-08-24T11:15:29;18.17;;;7.63;;
48317;SDS011;34127;47.412;9.730;2023-08-24T11:18:12;12.20;;;6.55;;
48317;SDS011;34127;47.412;9.730;2023-08-24T11:20:42;17.92;;;6.55;;
48317;SDS011;34127;47.412;9.730;2023-08-24T11:23:09;14.40;;;7.43;;
48317;SDS011;34127;47.412;9.730;2023-08-24T11:25:35;19.70;;;7.90;;
48317;SDS011;34127;47.412;9.730;2023-08-24T11:28:03;13.65;;;7.72;;
48317;SDS011;34127;47.412;9.730;2023-08-24T11:30:30;15.70;;;8.02;;
48317;SDS011;34127;47.412;9.730;2023-08-24T11:32:58;16.27;;;7.18;;
48317;SDS011;34127;47.412;9.730;2023-08-24T11:35:27;20.92;;;7.15;;
48317;SDS011;34127;47.412;9.730;2023-08-24T11:37:54;19.33;;;7.28;;
48317;SDS011;34127;47.412;9.730;2023-08-24T11:40:20;18.60;;;6.85;;
48317;SDS011;34127;47.412;9.730;2023-08-24T11:42:55;13.95;;;6.57;;
48317;SDS011;34127;47.412;9.730;2023-08-24T11:45:21;15.70;;;7.22;;
48317;SDS011;34127;47.412;9.730;2023-08-24T11:47:48;13.40;;;6.80;;
48317;SDS011;34127;47.412;9.730;2023-08-24T11:50:15;15.90;;;7.18;;
48317;SDS011;34127;47.412;9.730;2023-08-24T11:52:41;18.60;;;7.13;;
48317;SDS011;34127;47.412;9.730;2023-08-24T11:55:08;16.08;;;7.40;;
48317;SDS011;34127;47.412;9.730;2023-08-24T11:57:34;15.80;;;6.72;;
48317;SDS011;34127;47.412;9.730;2023-08-24T12:00:01;10.43;;;6.05;;
48317;SDS011;34127;47.412;9.730;2023-08-24T12:02:28;12.98;;;6.60;;
48317;SDS011;34127;47.412;9.730;2023-08-24T12:04:54;16.00;;;6.25;;
48317;SDS011;34127;47.412;9.730;2023-08-24T12:07:21;13.80;;;6.10;;
48317;SDS011;34127;47.412;9.730;2023-08-24T12:09:48;17.73;;;7.00;;
48317;SDS011;34127;47.412;9.730;2023-08-24T12:12:18;12.20;;;6.43;;
48317;SDS011;34127;47.412;9.730;2023-08-24T12:14:46;25.60;;;6.95;;
48317;SDS011;34127;47.412;9.730;2023-08-24T12:17:12;11.65;;;6.50;;
48317;SDS011;34127;47.412;9.730;2023-08-24T12:19:42;13.75;;;6.07;;
48317;SDS011;34127;47.412;9.730;2023-08-24T12:22:12;10.02;;;6.03;;
48317;SDS011;34127;47.412;9.730;2023-08-24T12:24:43;15.13;;;6.15;;
48317;SDS011;34127;47.412;9.730;2023-08-24T12:27:17;13.45;;;5.93;;
48317;SDS011;34127;47.412;9.730;2023-08-24T12:29:44;13.18;;;6.30;;
48317;SDS011;34127;47.412;9.730;2023-08-24T12:32:10;11.70;;;6.40;;
48317;SDS011;34127;47.412;9.730;2023-08-24T12:34:36;16.27;;;6.60;;
48317;SDS011;34127;47.412;9.730;2023-08-24T12:37:03;11.40;;;6.43;;
48317;SDS011;34127;47.412;9.730;2023-08-24T12:39:34;10.30;;;6.18;;
48317;SDS011;34127;47.412;9.730;2023-08-24T12:42:00;18.00;;;6.53;;
48317;SDS011;34127;47.412;9.730;2023-08-24T12:44:27;10.40;;;5.90;;
48317;SDS011;34127;47.412;9.730;2023-08-24T12:46:53;15.07;;;5.82;;
48317;SDS011;34127;47.412;9.730;2023-08-24T12:49:19;13.65;;;5.88;;
48317;SDS011;34127;47.412;9.730;2023-08-24T12:51:45;12.23;;;6.13;;
48317;SDS011;34127;47.412;9.730;2023-08-24T12:54:12;10.73;;;6.47;;
48317;SDS011;34127;47.412;9.730;2023-08-24T12:56:39;13.25;;;5.90;;
48317;SDS011;34127;47.412;9.730;2023-08-24T12:59:08;16.98;;;6.15;;
48317;SDS011;34127;47.412;9.730;2023-08-24T13:01:34;9.93;;;5.88;;
48317;SDS011;34127;47.412;9.730;2023-08-24T13:04:01;18.27;;;6.03;;
48317;SDS011;34127;47.412;9.730;2023-08-24T13:06:27;14.25;;;6.07;;
48317;SDS011;34127;47.412;9.730;2023-08-24T13:08:53;12.85;;;5.75;;
48317;SDS011;34127;47.412;9.730;2023-08-24T13:11:20;15.95;;;5.70;;
48317;SDS011;34127;47.412;9.730;2023-08-24T13:13:46;14.00;;;5.97;;
48317;SDS011;34127;47.412;9.730;2023-08-24T13:16:13;14.23;;;5.68;;
48317;SDS011;34127;47.412;9.730;2023-08-24T13:18:39;14.95;;;6.15;;
48317;SDS011;34127;47.412;9.730;2023-08-24T13:21:06;10.90;;;5.65;;
48317;SDS011;34127;47.412;9.730;2023-08-24T13:23:32;13.07;;;6.20;;
48317;SDS011;34127;47.412;9.730;2023-08-24T13:25:59;16.88;;;7.18;;
48317;SDS011;34127;47.412;9.730;2023-08-24T13:28:25;14.50;;;6.13;;
48317;SDS011;34127;47.412;9.730;2023-08-24T13:30:52;14.98;;;5.95;;
48317;SDS011;34127;47.412;9.730;2023-08-24T13:33:19;16.45;;;5.70;;
48317;SDS011;34127;47.412;9.730;2023-08-24T13:35:45;16.80;;;6.22;;
48317;SDS011;34127;47.412;9.730;2023-08-24T13:38:11;14.57;;;5.70;;
48317;SDS011;34127;47.412;9.730;2023-08-24T13:40:37;12.68;;;5.75;;
48317;SDS011;34127;47.412;9.730;2023-08-24T13:43:04;13.52;;;5.90;;
48317;SDS011;34127;47.412;9.730;2023-08-24T13:45:30;15.13;;;6.10;;
48317;SDS011;34127;47.412;9.730;2023-08-24T13:47:56;19.08;;;6.30;;
48317;SDS011;34127;47.412;9.730;2023-08-24T13:50:22;13.18;;;6.13;;
48317;SDS011;34127;47.412;9.730;2023-08-24T13:52:49;11.77;;;6.55;;
48317;SDS011;34127;47.412;9.730;2023-08-24T13:55:15;10.40;;;6.10;;
48317;SDS011;34127;47.412;9.730;2023-08-24T13:57:42;10.88;;;6.20;;
48317;SDS011;34127;47.412;9.730;2023-08-24T14:00:08;19.63;;;6.15;;
48317;SDS011;34127;47.412;9.730;2023-08-24T14:02:36;14.05;;;6.13;;
48317;SDS011;34127;47.412;9.730;2023-08-24T14:05:03;14.68;;;6.18;;
48317;SDS011;34127;47.412;9.730;2023-08-24T14:07:34;20.15;;;7.78;;
48317;SDS011;34127;47.412;9.730;2023-08-24T14:10:01;19.95;;;6.45;;
48317;SDS011;34127;47.412;9.730;2023-08-24T14:12:27;13.50;;;6.05;;
48317;SDS011;34127;47.412;9.730;2023-08-24T14:14:54;15.82;;;6.00;;
48317;SDS011;34127;47.412;9.730;2023-08-24T14:17:20;14.00;;;6.50;;
48317;SDS011;34127;47.412;9.730;2023-08-24T14:19:47;16.13;;;6.18;;
48317;SDS011;34127;47.412;9.730;2023-08-24T14:22:13;15.55;;;7.28;;
48317;SDS011;34127;47.412;9.730;2023-08-24T14:24:40;16.45;;;6.72;;
48317;SDS011;34127;47.412;9.730;2023-08-24T14:27:06;15.98;;;6.28;;
48317;SDS011;34127;47.412;9.730;2023-08-24T14:29:32;22.23;;;6.70;;
48317;SDS011;34127;47.412;9.730;2023-08-24T14:31:59;15.45;;;6.78;;
48317;SDS011;34127;47.412;9.730;2023-08-24T14:34:25;12.82;;;6.38;;
48317;SDS011;34127;47.412;9.730;2023-08-24T14:36:52;16.25;;;7.25;;
48317;SDS011;34127;47.412;9.730;2023-08-24T14:39:19;19.08;;;6.65;;
48317;SDS011;34127;47.412;9.730;2023-08-24T14:41:45;19.90;;;6.93;;
48317;SDS011;34127;47.412;9.730;2023-08-24T14:44:11;17.17;;;7.10;;
48317;SDS011;34127;47.412;9.730;2023-08-24T14:46:37;13.93;;;5.60;;